Time;durP1;ratioP1;P1;durP2;ratioP2;P2;SDS_P1;SDS_P2;PMS_P1;PMS_P2;Temp;Humidity;BMP_temperature;BMP_pressure;BME280_temperature;BME280_humidity;BME280_pressure;Samples;Min_cycle;Max_cycle;Signal;HPM_P1;HPM_P2
2023/12/16 00:02:20;;;;;;;14.80;3.75;;;;;;;9.27;75.77;101887.97;4972542;28;20137;-77
2023/12/16 00:04:47;;;;;;;10.93;3.30;;;;;;;9.27;75.81;101887.97;4972333;28;20086;-77
2023/12/16 00:07:13;;;;;;;7.68;3.15;;;;;;;9.28;76.06;101889.69;4972313;28;20187;-77
2023/12/16 00:09:40;;;;;;;14.23;3.53;;;;;;;9.27;75.95;101894.06;4972234;28;20404;-78
2023/12/16 00:12:07;;;;;;;11.68;3.75;;;;;;;9.29;75.86;101894.06;4972057;28;20499;-77
2023/12/16 00:14:36;;;;;;;14.55;4.05;;;;;;;9.28;75.87;101898.47;4972547;28;20146;-78
2023/12/16 00:17:03;;;;;;;14.80;3.83;;;;;;;9.30;75.73;101903.69;4972099;28;20057;-78
2023/12/16 00:19:30;;;;;;;14.25;3.83;;;;;;;9.31;75.75;101905.44;4954820;28;20138;-78
2023/12/16 00:21:57;;;;;;;8.80;3.33;;;;;;;9.30;75.61;101899.28;4972064;28;20050;-78
2023/12/16 00:24:23;;;;;;;10.63;3.20;;;;;;;9.31;75.55;101905.44;4971974;28;20491;-78
2023/12/16 00:26:50;;;;;;;13.13;3.50;;;;;;;9.31;75.46;101905.44;4971827;28;20043;-77
2023/12/16 00:29:17;;;;;;;15.20;3.63;;;;;;;9.30;75.44;101914.22;4971927;28;20051;-77
2023/12/16 00:31:43;;;;;;;14.20;3.53;;;;;;;9.31;75.33;101919.41;4971598;28;20051;-77
2023/12/16 00:34:10;;;;;;;11.60;4.13;;;;;;;9.31;75.45;101919.41;4971478;28;20042;-78
2023/12/16 00:36:37;;;;;;;10.85;3.55;;;;;;;9.31;75.38;101926.44;4971820;28;20518;-77
2023/12/16 00:39:03;;;;;;;17.45;3.55;;;;;;;9.30;75.26;101917.69;4972043;28;20121;-78
2023/12/16 00:41:30;;;;;;;17.98;3.67;;;;;;;9.30;75.45;101916.84;4971729;28;20059;-77
2023/12/16 00:43:57;;;;;;;14.20;3.17;;;;;;;9.30;75.12;101922.09;4971558;28;20051;-77
2023/12/16 00:46:23;;;;;;;12.60;3.35;;;;;;;9.30;75.06;101917.69;4971760;28;20139;-78
2023/12/16 00:48:50;;;;;;;12.60;3.40;;;;;;;9.30;74.94;101917.69;4971914;28;20047;-76
2023/12/16 00:51:19;;;;;;;13.88;4.00;;;;;;;9.28;73.78;101916.84;4971699;28;20042;-78
2023/12/16 00:53:46;;;;;;;10.82;3.17;;;;;;;9.30;74.86;101911.59;4971568;28;20051;-78
2023/12/16 00:56:13;;;;;;;10.93;3.47;;;;;;;9.29;75.04;101910.69;4971417;28;20055;-78
2023/12/16 00:58:39;;;;;;;11.70;3.00;;;;;;;9.31;74.69;101910.69;4971892;28;20145;-77
2023/12/16 01:01:06;;;;;;;13.45;3.13;;;;;;;9.31;75.02;101913.31;4971705;28;20051;-78
2023/12/16 01:03:34;;;;;;;9.85;3.33;;;;;;;9.30;74.26;101909.81;4974009;28;20082;-78
2023/12/16 01:06:01;;;;;;;12.30;3.72;;;;;;;9.32;74.61;101907.16;4974936;28;20157;-78
2023/12/16 01:08:27;;;;;;;9.65;3.17;;;;;;;9.32;74.79;101915.03;4975434;28;20109;-78
2023/12/16 01:10:54;;;;;;;14.98;3.45;;;;;;;9.33;74.78;101922.03;4975479;28;20101;-77
2023/12/16 01:13:20;;;;;;;11.65;3.30;;;;;;;9.32;74.80;101929.06;4975465;28;20542;-78
2023/12/16 01:15:47;;;;;;;10.73;3.28;;;;;;;9.33;74.80;101925.53;4975074;28;20055;-76
2023/12/16 01:18:14;;;;;;;8.02;2.92;;;;;;;9.35;74.43;101933.38;4975469;28;20054;-77
2023/12/16 01:20:40;;;;;;;15.98;4.50;;;;;;;9.35;74.72;101928.13;4975234;28;20047;-77
2023/12/16 01:23:07;;;;;;;11.30;3.50;;;;;;;9.35;74.66;101926.34;4975184;28;20412;-77
2023/12/16 01:25:34;;;;;;;9.77;3.47;;;;;;;9.36;74.59;101929.88;4957556;28;20039;-77
2023/12/16 01:28:00;;;;;;;15.05;3.00;;;;;;;9.36;74.37;101925.50;4974674;28;20066;-77
2023/12/16 01:30:27;;;;;;;12.05;3.10;;;;;;;9.37;74.70;101923.69;4975143;28;20070;-78
2023/12/16 01:32:53;;;;;;;10.27;3.20;;;;;;;9.36;74.49;101919.34;4975024;28;20393;-76
2023/12/16 01:35:20;;;;;;;10.55;3.13;;;;;;;9.36;74.38;101930.75;4974991;28;20451;-78
2023/12/16 01:37:46;;;;;;;13.57;3.10;;;;;;;9.36;74.45;101937.75;4974391;28;20093;-78
2023/12/16 01:40:13;;;;;;;11.75;3.10;;;;;;;9.35;74.42;101936.88;4974975;28;20843;-77
2023/12/16 01:42:39;;;;;;;15.95;3.30;;;;;;;9.36;74.57;101929.88;4975010;28;20090;-80
2023/12/16 01:45:07;;;;;;;14.05;3.78;;;;;;;9.35;74.39;101928.97;4974873;28;20407;-78
2023/12/16 01:47:34;;;;;;;13.80;3.45;;;;;;;9.36;73.88;101922.84;4974421;28;20055;-79
2023/12/16 01:50:01;;;;;;;13.57;2.95;;;;;;;9.35;73.99;101921.09;4974591;28;20051;-78
2023/12/16 01:52:28;;;;;;;14.73;3.08;;;;;;;9.35;74.14;101917.63;4974824;28;20408;-78
2023/12/16 01:54:54;;;;;;;14.90;2.83;;;;;;;9.35;73.99;101922.88;4974821;28;20415;-79
2023/12/16 01:57:21;;;;;;;9.68;2.95;;;;;;;9.35;74.01;101925.50;4974367;28;20463;-77
2023/12/16 01:59:48;;;;;;;13.48;3.90;;;;;;;9.34;73.93;101916.75;4974637;28;20051;-77
2023/12/16 02:02:17;;;;;;;11.25;2.78;;;;;;;9.35;73.84;101925.50;4974417;28;20419;-78
2023/12/16 02:04:44;;;;;;;13.20;3.17;;;;;;;9.34;73.55;101918.50;4974373;28;20501;-78
2023/12/16 02:07:11;;;;;;;17.77;3.20;;;;;;;9.33;73.90;101908.88;4974210;28;20069;-77
2023/12/16 02:09:37;;;;;;;14.95;3.40;;;;;;;9.33;73.84;101911.50;4974211;28;20066;-77
2023/12/16 02:12:04;;;;;;;11.30;2.60;;;;;;;9.33;73.78;101908.88;4974483;28;20121;-78
2023/12/16 02:14:31;;;;;;;9.98;3.25;;;;;;;9.33;73.97;101911.50;4973753;28;20046;-77
2023/12/16 02:16:57;;;;;;;12.98;3.20;;;;;;;9.33;74.14;101904.50;4973947;28;20055;-78
2023/12/16 02:19:25;;;;;;;10.65;3.03;;;;;;;9.33;73.94;101907.13;4974053;28;20122;-78
2023/12/16 02:21:54;;;;;;;12.60;3.35;;;;;;;9.33;74.18;101906.25;4974292;28;20133;-78
2023/12/16 02:24:21;;;;;;;13.52;3.45;;;;;;;9.33;73.85;101898.38;4973994;28;20451;-78
2023/12/16 02:26:48;;;;;;;13.13;3.45;;;;;;;9.32;73.52;101900.16;4973790;28;20078;-78
2023/12/16 02:29:15;;;;;;;14.20;4.93;;;;;;;9.33;73.66;101903.63;4973992;28;20078;-78
2023/12/16 02:31:44;;;;;;;11.57;3.13;;;;;;;9.31;73.35;101892.28;4956941;28;20141;-78
2023/12/16 02:34:11;;;;;;;13.45;4.03;;;;;;;9.31;73.15;101892.28;4974119;28;20089;-79
2023/12/16 02:36:38;;;;;;;13.85;4.10;;;;;;;9.29;73.55;101896.69;4973641;28;20047;-77
2023/12/16 02:39:04;;;;;;;12.98;3.63;;;;;;;9.29;73.56;101894.06;4973663;28;20039;-78
2023/12/16 02:41:30;;;;;;;11.93;3.88;;;;;;;9.29;73.49;101894.06;4973619;28;20106;-79
2023/12/16 02:43:57;;;;;;;17.52;3.97;;;;;;;9.27;73.53;101890.59;4973690;28;20051;-78
2023/12/16 02:46:24;;;;;;;16.42;3.63;;;;;;;9.28;73.85;101894.97;4973364;28;20094;-78
2023/12/16 02:48:51;;;;;;;13.02;3.50;;;;;;;9.27;73.61;101894.06;4973753;28;20047;-77
2023/12/16 02:51:19;;;;;;;13.80;3.67;;;;;;;9.28;73.68;101900.22;4973436;28;20453;-77
2023/12/16 02:53:46;;;;;;;13.38;3.72;;;;;;;9.27;73.75;101893.22;4973651;28;20085;-78
2023/12/16 02:56:12;;;;;;;14.13;4.25;;;;;;;9.26;73.92;101894.97;4973366;28;20117;-78
2023/12/16 02:58:39;;;;;;;15.77;4.93;;;;;;;9.25;74.03;101888.88;4973367;28;20055;-77
2023/12/16 03:01:08;;;;;;;11.48;4.65;;;;;;;9.25;73.93;101895.88;4956209;28;20055;-78
2023/12/16 03:03:39;;;;;;;13.80;3.75;;;;;;;9.23;72.62;101893.28;4973340;28;20062;-77
2023/12/16 03:06:07;;;;;;;14.93;4.15;;;;;;;9.24;73.60;101897.63;4972951;28;20091;-78
2023/12/16 03:08:34;;;;;;;13.57;3.83;;;;;;;9.23;73.66;101898.53;4973323;28;20061;-78
2023/12/16 03:11:02;;;;;;;12.60;4.28;;;;;;;9.23;73.55;101895.03;4973156;28;20074;-78
2023/12/16 03:13:29;;;;;;;14.77;4.63;;;;;;;9.21;73.91;101900.34;4973132;28;20066;-78
2023/12/16 03:15:56;;;;;;;16.92;4.50;;;;;;;9.20;73.81;101888.06;4955986;28;20051;-79
2023/12/16 03:18:22;;;;;;;14.70;4.07;;;;;;;9.20;73.83;101884.59;4973421;28;20101;-78
2023/12/16 03:20:49;;;;;;;16.77;4.25;;;;;;;9.18;73.47;101894.22;4955692;28;20043;-77
2023/12/16 03:23:16;;;;;;;15.07;4.20;;;;;;;9.19;73.67;101891.59;4973213;28;20049;-77
2023/12/16 03:25:43;;;;;;;12.55;4.20;;;;;;;9.17;73.67;101903.91;4972346;28;20491;-80
2023/12/16 03:28:10;;;;;;;12.48;4.05;;;;;;;9.16;73.65;101901.28;4972676;28;20117;-79
2023/12/16 03:30:40;;;;;;;13.20;4.53;;;;;;;9.13;72.75;101891.69;4972903;28;20051;-80
2023/12/16 03:33:07;;;;;;;15.82;3.88;;;;;;;9.14;73.86;101898.69;4973272;28;20419;-77
2023/12/16 03:35:34;;;;;;;18.83;4.25;;;;;;;9.14;73.82;101893.44;4955946;28;20054;-78
2023/12/16 03:38:01;;;;;;;14.88;4.22;;;;;;;9.13;73.52;101910.09;4972766;28;20114;-77
2023/12/16 03:40:29;;;;;;;12.85;4.97;;;;;;;9.12;73.69;101898.72;4972530;28;20515;-78
2023/12/16 03:42:56;;;;;;;11.32;3.70;;;;;;;9.12;73.87;101905.72;4972788;28;20558;-79
2023/12/16 03:45:23;;;;;;;18.80;4.40;;;;;;;9.12;73.60;101896.06;4955700;28;20058;-78
2023/12/16 03:47:50;;;;;;;16.23;4.50;;;;;;;9.12;73.98;101900.44;4955503;28;20046;-78
2023/12/16 03:50:17;;;;;;;14.98;4.35;;;;;;;9.12;73.85;101896.06;4972641;28;20085;-78
2023/12/16 03:52:44;;;;;;;13.93;4.00;;;;;;;9.12;73.72;101889.94;4955369;28;20061;-78
2023/12/16 03:55:10;;;;;;;19.52;4.85;;;;;;;9.11;73.59;101886.47;4972494;28;20682;-79
2023/12/16 03:57:37;;;;;;;20.05;4.63;;;;;;;9.11;73.52;101883.84;4972443;28;20492;-79
2023/12/16 04:00:05;;;;;;;14.55;4.15;;;;;;;9.10;73.91;101881.22;4972756;28;20054;-78
2023/12/16 04:02:31;;;;;;;14.98;4.47;;;;;;;9.09;73.67;101892.63;4972340;28;20054;-77
2023/12/16 04:04:58;;;;;;;14.07;4.00;;;;;;;9.09;73.96;101895.28;4972484;28;20055;-79
2023/12/16 04:07:24;;;;;;;14.50;4.45;;;;;;;9.07;73.70;101897.03;4972608;28;20046;-78
2023/12/16 04:09:51;;;;;;;13.60;4.30;;;;;;;9.06;73.57;101896.19;4972838;28;20050;-78
2023/12/16 04:12:18;;;;;;;13.80;3.92;;;;;;;9.04;73.43;101905.00;4972228;28;20047;-78
2023/12/16 04:14:45;;;;;;;10.45;4.00;;;;;;;9.03;73.66;101900.59;4972507;28;20055;-78
2023/12/16 04:17:11;;;;;;;16.58;3.67;;;;;;;9.03;73.53;101897.97;4972113;28;20101;-77
2023/12/16 04:19:38;;;;;;;18.73;4.32;;;;;;;9.02;73.49;101897.13;4972329;28;20455;-80
2023/12/16 04:22:05;;;;;;;11.25;3.70;;;;;;;9.02;73.78;101902.38;4971992;28;20047;-79
2023/12/16 04:24:40;;;;;;;10.85;3.97;;;;;;;9.01;73.38;101919.00;4971606;28;20050;-78
2023/12/16 04:27:06;;;;;;;15.60;4.47;;;;;;;9.02;73.55;101919.91;4954713;28;20081;-76
2023/12/16 04:29:33;;;;;;;19.92;5.03;;;;;;;9.02;73.39;101914.63;4972087;28;20098;-77
2023/12/16 04:31:59;;;;;;;17.88;4.45;;;;;;;9.00;73.54;101919.91;4972014;28;20451;-76
2023/12/16 04:34:26;;;;;;;11.10;3.78;;;;;;;9.01;73.34;101926.03;4972028;28;20062;-78
2023/12/16 04:36:52;;;;;;;10.75;3.58;;;;;;;8.99;73.23;101920.81;4971350;28;20058;-78
2023/12/16 04:39:19;;;;;;;18.75;3.97;;;;;;;8.98;73.38;101921.72;4972016;28;20055;-78
2023/12/16 04:41:45;;;;;;;16.27;3.92;;;;;;;8.98;73.51;101922.56;4971926;28;20492;-78
2023/12/16 04:44:12;;;;;;;17.10;3.75;;;;;;;8.97;73.15;101923.47;4972092;28;20567;-77
2023/12/16 04:46:38;;;;;;;17.92;3.95;;;;;;;8.98;73.44;101916.47;4971587;28;20463;-78
2023/12/16 04:49:05;;;;;;;16.85;4.07;;;;;;;8.97;73.23;101907.69;4971761;28;20050;-78
2023/12/16 04:51:32;;;;;;;12.98;4.00;;;;;;;8.97;73.30;101912.09;4954912;28;20055;-78
2023/12/16 04:53:58;;;;;;;19.27;3.60;;;;;;;8.97;73.38;101919.97;4954609;28;20587;-78
2023/12/16 04:56:25;;;;;;;15.38;4.15;;;;;;;8.92;72.63;101906.91;4954674;28;20047;-77
2023/12/16 04:58:51;;;;;;;16.45;3.88;;;;;;;8.93;72.56;101910.41;4971993;28;20050;-77
2023/12/16 05:01:18;;;;;;;15.95;3.83;;;;;;;8.89;72.46;101906.94;4971891;28;20114;-77
2023/12/16 05:03:44;;;;;;;17.85;4.47;;;;;;;8.88;72.20;101914.84;4971904;28;20061;-77
2023/12/16 05:06:11;;;;;;;15.13;3.97;;;;;;;8.84;72.34;101911.41;4971473;28;20059;-77
2023/12/16 05:08:37;;;;;;;13.88;4.03;;;;;;;8.81;72.38;101906.19;4971733;28;20062;-76
2023/12/16 05:11:04;;;;;;;15.80;4.38;;;;;;;8.77;72.16;101907.13;4971834;28;20516;-77
2023/12/16 05:13:31;;;;;;;14.48;4.10;;;;;;;8.74;72.15;101894.91;4972017;28;20054;-77
2023/12/16 05:15:57;;;;;;;18.42;4.50;;;;;;;8.71;72.19;101887.94;4971663;28;20086;-77
2023/12/16 05:18:24;;;;;;;19.10;4.75;;;;;;;8.69;72.06;101892.38;4971288;28;20097;-77
2023/12/16 05:20:50;;;;;;;15.95;4.20;;;;;;;8.66;72.24;101888.91;4972342;28;20058;-77
2023/12/16 05:23:17;;;;;;;17.95;4.22;;;;;;;8.65;72.63;101881.91;4954433;28;20499;-77
2023/12/16 05:25:44;;;;;;;15.50;3.80;;;;;;;8.62;72.31;101887.22;4971868;28;20558;-77
2023/12/16 05:28:10;;;;;;;17.17;4.00;;;;;;;8.59;72.49;101873.25;4971252;28;20149;-77
2023/12/16 05:30:37;;;;;;;21.30;4.47;;;;;;;8.57;72.33;101889.91;4971486;28;20502;-77
2023/12/16 05:33:03;;;;;;;15.75;3.95;;;;;;;8.53;72.54;101875.97;4971729;28;20055;-76
2023/12/16 05:35:30;;;;;;;18.67;4.47;;;;;;;8.50;72.58;101883.84;4971809;28;20051;-77
2023/12/16 05:37:57;;;;;;;16.08;4.35;;;;;;;8.46;72.61;101875.13;4971317;28;20053;-77
2023/12/16 05:40:23;;;;;;;17.10;5.13;;;;;;;8.42;72.50;101872.59;4971470;28;20051;-77
2023/12/16 05:42:50;;;;;;;18.40;4.80;;;;;;;8.38;72.73;101877.03;4971611;28;20133;-77
2023/12/16 05:45:16;;;;;;;15.27;4.25;;;;;;;8.35;72.62;101882.31;4971342;28;20118;-77
2023/12/16 05:47:43;;;;;;;18.92;4.57;;;;;;;8.34;73.08;101885.81;4971229;28;20090;-76
2023/12/16 05:50:10;;;;;;;18.02;4.22;;;;;;;8.31;72.95;101881.50;4972732;28;20047;-77
2023/12/16 05:52:39;;;;;;;20.40;4.93;;;;;;;8.31;73.51;101889.34;4957564;28;20109;-78
2023/12/16 05:55:06;;;;;;;17.80;5.18;;;;;;;8.28;72.77;101889.38;4974977;28;20078;-77
2023/12/16 05:57:33;;;;;;;12.88;4.13;;;;;;;8.27;72.81;101898.16;4974616;28;20054;-76
2023/12/16 05:59:59;;;;;;;14.00;4.35;;;;;;;8.26;73.10;101895.56;4974335;28;20556;-78
2023/12/16 06:02:26;;;;;;;14.98;4.50;;;;;;;8.27;73.32;101899.91;4974685;28;20090;-77
2023/12/16 06:04:53;;;;;;;15.75;4.97;;;;;;;8.24;73.12;101905.19;4974495;28;20504;-78
2023/12/16 06:07:20;;;;;;;14.38;4.60;;;;;;;8.23;72.96;101901.69;4974106;28;20112;-79
2023/12/16 06:09:46;;;;;;;18.05;4.25;;;;;;;8.21;73.29;101906.97;4974536;28;20048;-79
2023/12/16 06:12:13;;;;;;;13.60;4.55;;;;;;;8.20;72.97;101907.84;4974815;28;20058;-78
2023/12/16 06:14:39;;;;;;;19.42;5.72;;;;;;;8.19;73.21;101921.84;4974273;28;20130;-76
2023/12/16 06:17:06;;;;;;;16.33;5.10;;;;;;;8.18;73.27;101916.59;4974382;28;20138;-76
2023/12/16 06:19:32;;;;;;;16.27;5.30;;;;;;;8.16;72.99;101916.66;4957300;28;20050;-76
2023/12/16 06:21:59;;;;;;;18.13;5.40;;;;;;;8.15;72.96;101916.66;4956186;28;20083;-78
2023/12/16 06:24:26;;;;;;;15.40;5.38;;;;;;;8.15;73.35;101917.50;4956884;28;20050;-77
2023/12/16 06:26:53;;;;;;;15.77;5.00;;;;;;;8.15;73.41;101919.28;4973886;28;20113;-76
2023/12/16 06:29:20;;;;;;;15.82;4.38;;;;;;;8.13;73.11;101927.19;4973727;28;20412;-77
2023/12/16 06:31:46;;;;;;;18.02;5.28;;;;;;;8.10;73.05;101919.34;4973824;28;20051;-77
2023/12/16 06:34:13;;;;;;;15.57;4.75;;;;;;;8.07;73.06;101907.13;4973608;28;20464;-78
2023/12/16 06:36:39;;;;;;;15.07;4.50;;;;;;;8.06;73.17;101917.63;4956209;28;20059;-78
2023/12/16 06:39:06;;;;;;;14.55;4.88;;;;;;;8.05;73.15;101919.41;4956446;28;20118;-77
2023/12/16 06:41:32;;;;;;;14.43;4.93;;;;;;;8.05;73.27;101926.38;4973629;28;20059;-77
2023/12/16 06:44:00;;;;;;;23.25;4.97;;;;;;;8.05;73.14;101923.78;4974198;28;20145;-77
2023/12/16 06:46:26;;;;;;;17.10;5.10;;;;;;;8.03;73.49;101915.91;4955068;28;20054;-77
2023/12/16 06:48:53;;;;;;;21.55;5.40;;;;;;;8.01;73.28;101924.69;4974021;28;20051;-76
2023/12/16 06:51:20;;;;;;;19.38;5.18;;;;;;;8.00;73.35;101936.06;4973730;28;20082;-77
2023/12/16 06:53:46;;;;;;;22.00;5.03;;;;;;;7.98;73.60;101933.47;4973848;28;20086;-78
2023/12/16 06:56:13;;;;;;;16.45;4.88;;;;;;;7.98;73.41;101933.47;4973113;28;20055;-76
2023/12/16 06:58:40;;;;;;;21.42;4.82;;;;;;;7.97;73.86;101930.84;4973804;28;20097;-76
2023/12/16 07:01:11;;;;;;;17.55;5.53;;;;;;;7.95;73.06;101934.38;4973540;28;20054;-77
2023/12/16 07:03:38;;;;;;;19.95;4.78;;;;;;;7.95;73.70;101933.47;4973845;28;20491;-76
2023/12/16 07:06:06;;;;;;;18.63;5.05;;;;;;;7.95;73.56;101942.22;4972555;28;20567;-77
2023/12/16 07:08:34;;;;;;;13.52;4.72;;;;;;;7.95;73.75;101947.47;4956616;28;20054;-75
2023/12/16 07:11:01;;;;;;;17.10;5.05;;;;;;;7.94;73.67;101937.00;4956142;28;20105;-77
2023/12/16 07:13:28;;;;;;;23.08;5.10;;;;;;;7.93;73.78;101938.75;4973379;28;20055;-76
2023/12/16 07:15:54;;;;;;;22.05;5.13;;;;;;;7.96;73.86;101943.09;4955701;28;20573;-77
2023/12/16 07:18:21;;;;;;;13.98;5.45;;;;;;;7.96;74.02;101935.22;4956224;28;20061;-77
2023/12/16 07:20:48;;;;;;;24.33;5.55;;;;;;;8.00;74.48;101936.91;4973421;28;20057;-78
2023/12/16 07:23:14;;;;;;;17.58;5.55;;;;;;;8.02;74.12;101943.03;4973038;28;20105;-78
2023/12/16 07:25:41;;;;;;;18.00;5.53;;;;;;;8.06;74.22;101949.09;4972857;28;20082;-77
2023/12/16 07:28:07;;;;;;;23.25;6.07;;;;;;;8.06;74.23;101956.97;4972641;28;20060;-77
2023/12/16 07:30:34;;;;;;;21.92;5.68;;;;;;;8.10;74.32;101960.44;4973028;28;20113;-75
2023/12/16 07:33:01;;;;;;;16.17;5.18;;;;;;;8.12;74.40;101969.16;4973325;28;20043;-75
2023/12/16 07:35:27;;;;;;;19.13;4.88;;;;;;;8.15;74.43;101961.25;4972683;28;20059;-77
2023/12/16 07:37:54;;;;;;;22.42;4.80;;;;;;;8.16;74.30;101969.13;4954972;28;20105;-77
2023/12/16 07:40:20;;;;;;;20.30;4.28;;;;;;;8.20;74.35;101972.56;4972979;28;20133;-78
2023/12/16 07:42:47;;;;;;;15.98;5.53;;;;;;;8.23;74.46;101974.28;4972442;28;20145;-77
2023/12/16 07:45:14;;;;;;;21.48;5.38;;;;;;;8.25;74.05;101980.38;4971640;28;20066;-79
2023/12/16 07:47:40;;;;;;;24.13;5.20;;;;;;;8.28;74.13;101961.97;4954030;28;20207;-78
2023/12/16 07:50:08;;;;;;;18.90;4.97;;;;;;;8.31;74.52;101975.06;4972081;28;20072;-77
2023/12/16 07:52:34;;;;;;;19.40;5.20;;;;;;;8.35;74.51;101966.28;4972517;28;20055;-78
2023/12/16 07:55:02;;;;;;;18.75;5.07;;;;;;;8.38;74.49;101966.25;4972468;28;20452;-77
2023/12/16 07:57:28;;;;;;;15.35;4.82;;;;;;;8.41;74.52;101967.97;4972039;28;20054;-78
2023/12/16 07:59:56;;;;;;;18.80;5.00;;;;;;;8.43;74.32;101972.31;4972534;28;20133;-77
2023/12/16 08:02:22;;;;;;;15.18;5.20;;;;;;;8.45;74.28;101967.03;4972434;28;20105;-78
2023/12/16 08:04:50;;;;;;;18.13;5.28;;;;;;;8.48;74.50;101961.72;4972463;28;20086;-77
2023/12/16 08:07:16;;;;;;;15.60;4.85;;;;;;;8.51;74.35;101966.06;4972080;28;20506;-78
2023/12/16 08:09:43;;;;;;;20.45;5.20;;;;;;;8.53;74.54;101956.47;4955468;28;20134;-78
2023/12/16 08:12:10;;;;;;;20.17;5.38;;;;;;;8.55;74.37;101967.81;4971675;28;20594;-77
2023/12/16 08:14:36;;;;;;;19.60;6.28;;;;;;;8.57;74.26;101960.78;4972656;28;20051;-77
2023/12/16 08:17:03;;;;;;;23.48;5.25;;;;;;;8.59;74.26;101959.88;4971893;28;20070;-78
2023/12/16 08:19:30;;;;;;;17.98;5.38;;;;;;;8.60;73.96;101960.75;4971881;28;20555;-77
2023/12/16 08:21:59;;;;;;;21.40;5.93;;;;;;;8.62;74.26;101961.59;4972424;28;20046;-78
2023/12/16 08:24:26;;;;;;;18.65;5.25;;;;;;;8.66;74.55;101958.03;4972331;28;20143;-78
2023/12/16 08:26:52;;;;;;;16.30;4.93;;;;;;;8.68;74.25;101958.88;4954722;28;20478;-77
2023/12/16 08:29:19;;;;;;;16.40;5.35;;;;;;;8.70;74.14;101951.84;4971969;28;20129;-78
2023/12/16 08:31:46;;;;;;;15.73;4.35;;;;;;;8.72;74.40;101957.94;4972050;28;20062;-78
2023/12/16 08:34:13;;;;;;;15.48;4.72;;;;;;;8.75;74.10;101958.81;4972114;28;20074;-77
2023/12/16 08:36:41;;;;;;;19.38;5.15;;;;;;;8.78;74.27;101964.03;4971885;28;20043;-77
2023/12/16 08:39:07;;;;;;;15.52;4.72;;;;;;;8.81;74.63;101964.84;4972151;28;20073;-77
2023/12/16 08:41:34;;;;;;;20.38;5.03;;;;;;;8.83;74.23;101957.78;4972092;28;20507;-78
2023/12/16 08:44:03;;;;;;;17.45;4.63;;;;;;;8.87;74.14;101974.41;4972158;28;20047;-78
2023/12/16 08:46:29;;;;;;;18.60;4.97;;;;;;;8.88;74.11;101975.25;4954445;28;20074;-77
2023/12/16 08:48:56;;;;;;;18.60;4.78;;;;;;;8.91;74.21;101981.34;4971642;28;20058;-77
2023/12/16 08:51:23;;;;;;;20.48;5.07;;;;;;;8.92;73.96;101979.56;4954521;28;20062;-78
2023/12/16 08:53:50;;;;;;;17.45;5.75;;;;;;;8.94;73.79;101977.81;4971971;28;20093;-77
2023/12/16 08:56:18;;;;;;;26.73;5.22;;;;;;;8.96;73.97;101973.38;4971652;28;20097;-77
2023/12/16 08:58:46;;;;;;;17.85;5.20;;;;;;;8.98;73.78;101971.63;4954234;28;20476;-78
2023/12/16 09:01:13;;;;;;;19.92;5.28;;;;;;;9.00;73.95;101980.34;4971662;28;20050;-77
2023/12/16 09:03:43;;;;;;;19.27;5.00;;;;;;;9.02;73.24;101982.94;4971957;28;20146;-80
2023/12/16 09:06:10;;;;;;;22.10;5.40;;;;;;;9.06;74.23;101979.38;4971694;28;20125;-78
2023/12/16 09:08:37;;;;;;;20.33;5.82;;;;;;;9.07;74.26;101987.25;4971773;28;20046;-78
2023/12/16 09:11:04;;;;;;;22.88;5.07;;;;;;;9.12;74.04;101984.53;4971851;28;20583;-78
2023/12/16 09:13:31;;;;;;;22.75;6.03;;;;;;;9.12;74.08;101985.41;4971802;28;20137;-78
2023/12/16 09:15:58;;;;;;;20.65;4.78;;;;;;;9.15;74.33;101997.63;4971503;28;20480;-77
2023/12/16 09:18:25;;;;;;;16.58;4.63;;;;;;;9.18;74.26;101992.34;4971497;28;20523;-76
2023/12/16 09:20:51;;;;;;;16.70;4.97;;;;;;;9.22;74.33;101995.78;4971795;28;20047;-78
2023/12/16 09:23:18;;;;;;;21.73;5.60;;;;;;;9.24;74.41;101991.38;4972169;28;20051;-77
2023/12/16 09:25:44;;;;;;;12.65;4.70;;;;;;;9.27;74.35;101996.56;4975528;28;20055;-78
2023/12/16 09:28:11;;;;;;;21.63;4.68;;;;;;;9.32;74.61;101993.88;4974924;28;20069;-77
2023/12/16 09:30:37;;;;;;;20.38;4.85;;;;;;;9.34;74.87;101998.22;4975191;28;20065;-77
2023/12/16 09:33:05;;;;;;;21.00;4.90;;;;;;;9.39;74.72;101998.16;4975502;28;20090;-78
2023/12/16 09:35:32;;;;;;;22.95;5.00;;;;;;;9.45;75.16;101991.91;4975418;28;20467;-78
2023/12/16 09:37:58;;;;;;;23.27;5.45;;;;;;;9.48;74.80;101990.13;4974814;28;20097;-77
2023/12/16 09:40:26;;;;;;;25.02;5.38;;;;;;;9.51;74.71;102000.59;4975238;28;20056;-78
2023/12/16 09:43:01;;;;;;;29.58;6.43;;;;;;;9.56;73.99;101995.25;4974701;28;20050;-76
2023/12/16 09:45:28;;;;;;;14.00;4.40;;;;;;;9.62;74.79;102005.69;4957927;28;20047;-77
2023/12/16 09:47:55;;;;;;;17.85;4.53;;;;;;;9.67;74.85;102004.72;4974566;28;20489;-77
2023/12/16 09:50:22;;;;;;;18.50;4.43;;;;;;;9.72;74.93;101992.38;4974916;28;20047;-78
2023/12/16 09:52:48;;;;;;;19.80;4.63;;;;;;;9.76;74.72;101997.53;4974925;28;20102;-78
2023/12/16 09:55:15;;;;;;;28.45;5.38;;;;;;;9.80;74.57;101982.59;4974836;28;20163;-78
2023/12/16 09:57:43;;;;;;;21.98;4.30;;;;;;;9.83;74.40;101994.81;4974328;28;20130;-76
2023/12/16 10:00:12;;;;;;;22.38;5.15;;;;;;;9.85;74.31;101991.25;4974289;28;20094;-78
2023/12/16 10:02:39;;;;;;;21.02;5.25;;;;;;;9.87;74.41;101988.59;4974065;28;20125;-77
2023/12/16 10:05:07;;;;;;;23.40;4.47;;;;;;;9.88;74.21;102000.84;4974834;28;20101;-78
2023/12/16 10:07:33;;;;;;;23.33;5.45;;;;;;;9.89;74.06;101999.94;4974581;28;20141;-77
2023/12/16 10:10:00;;;;;;;22.88;4.80;;;;;;;9.88;73.97;102000.84;4974585;28;20047;-76
2023/12/16 10:12:33;;;;;;;23.88;5.80;;;;;;;9.86;72.32;101998.25;4974853;28;20590;-78
2023/12/16 10:15:00;;;;;;;23.30;5.22;;;;;;;9.89;73.94;101992.94;4974909;28;20054;-78
2023/12/16 10:17:28;;;;;;;27.67;5.07;;;;;;;9.91;74.46;101980.59;4974205;28;20388;-78
2023/12/16 10:19:55;;;;;;;18.30;4.25;;;;;;;9.96;74.76;101983.16;4974450;28;20462;-77
2023/12/16 10:22:21;;;;;;;32.53;5.70;;;;;;;10.00;74.66;101979.59;4974586;28;20054;-77
2023/12/16 10:24:50;;;;;;;21.70;4.57;;;;;;;10.03;74.41;101966.34;4974357;28;20500;-77
2023/12/16 10:27:18;;;;;;;21.83;5.30;;;;;;;10.09;74.25;101975.06;4974542;28;20059;-78
2023/12/16 10:29:46;;;;;;;18.92;4.55;;;;;;;10.13;74.30;101968.84;4974120;28;20054;-78
2023/12/16 10:32:28;;;;;;;22.80;5.05;;;;;;;10.18;74.44;101956.44;4974417;28;20054;-78
2023/12/16 10:34:56;;;;;;;20.67;4.35;;;;;;;10.23;74.39;101973.00;4956769;28;20055;-78
2023/12/16 10:37:22;;;;;;;25.35;4.80;;;;;;;10.27;74.26;101960.63;4974054;28;20055;-78
2023/12/16 10:39:49;;;;;;;23.20;5.32;;;;;;;10.31;74.25;101962.31;4973932;28;20054;-79
2023/12/16 10:42:15;;;;;;;22.15;4.32;;;;;;;10.33;74.06;101950.00;4974066;28;20050;-77
2023/12/16 10:44:42;;;;;;;26.10;5.10;;;;;;;10.35;73.68;101942.09;4974356;28;20093;-77
2023/12/16 10:47:11;;;;;;;24.90;5.07;;;;;;;10.38;73.93;101945.50;4973900;28;20138;-79
2023/12/16 10:49:42;;;;;;;17.17;4.82;;;;;;;10.38;73.59;101948.13;4973465;28;20067;-78
2023/12/16 10:52:16;;;;;;;19.58;4.57;;;;;;;10.37;72.45;101943.78;4974181;28;20055;-80
2023/12/16 10:54:51;;;;;;;16.50;4.47;;;;;;;10.39;72.46;101949.88;4973080;28;20543;-78
2023/12/16 10:57:36;;;;;;;22.02;4.90;;;;;;;10.38;71.84;101942.00;4973345;28;20046;-78
2023/12/16 11:00:07;;;;;;;21.60;4.50;;;;;;;10.40;72.92;101943.69;4973456;28;20197;-77
2023/12/16 11:02:42;;;;;;;22.88;4.80;;;;;;;10.39;72.51;101930.59;4973739;28;20129;-77
2023/12/16 11:05:22;;;;;;;20.63;5.03;;;;;;;10.37;71.20;101933.25;4956260;28;20152;-77
2023/12/16 11:07:49;;;;;;;23.38;5.00;;;;;;;10.41;73.54;101932.28;4973506;28;20043;-78
2023/12/16 11:10:18;;;;;;;23.98;5.38;;;;;;;10.41;73.73;101936.69;4973340;28;20385;-78
2023/12/16 11:12:45;;;;;;;17.35;4.28;;;;;;;10.41;73.63;101931.41;4973417;28;20058;-77
2023/12/16 11:15:13;;;;;;;26.58;5.85;;;;;;;10.41;73.62;101923.50;4972925;28;20043;-78
2023/12/16 11:18:16;;;;;;;18.52;4.88;;;;;;;10.38;71.67;101918.28;4973310;28;20058;-78
2023/12/16 11:20:46;;;;;;;22.05;5.30;;;;;;;10.43;73.58;101913.78;4956325;28;20097;-78
2023/12/16 11:23:16;;;;;;;25.73;5.57;;;;;;;10.43;74.05;101914.69;4973339;28;20058;-77
2023/12/16 11:25:43;;;;;;;21.75;5.20;;;;;;;10.43;74.07;101911.16;4973344;28;20063;-76